Terminal Aerodrome Forecast
Issued by NWS

Home | Current Version | Previous Version | Text Only | Print | Product List | Glossary On
Versions: 1 2 3 4 5 6 7 8 9 10 11 12 13 14 15 16 17
000
FTUS45 KTFX 281120
TAFGTF
TAF
KGTF 281120Z 2812/2912 25005KT P6SM VCSH SCT020 BKN035 OVC050
     FM281600 31007KT P6SM VCSH SCT020 BKN030
     FM282000 33007KT P6SM VCSH BKN040 PROB30 2821/2902 4SM -SHRA
      OVC025
     FM290200 07006KT P6SM BKN050 PROB30 2902/2904 4SM -SHRA OVC025
     FM290400 14006KT P6SM BKN060
     FM290600 19006KT P6SM SCT060=

USA.gov is the U.S. government's official web portal to all federal, state and local government web resources and services.